Time;durP1;ratioP1;P1;durP2;ratioP2;P2;SDS_P1;SDS_P2;PMS_P1;PMS_P2;Temp;Humidity;BMP_temperature;BMP_pressure;BME280_temperature;BME280_humidity;BME280_pressure;Samples;Min_cycle;Max_cycle;Signal;HPM_P1;HPM_P2
2022/04/18 00:01:42;;;;;;;0.77;0.30;;;;;;;2.15;76.39;100377.70;1638588;85;21033;-70
2022/04/18 00:04:10;;;;;;;0.77;0.40;;;;;;;2.11;76.62;100369.70;1686270;83;21086;-70
2022/04/18 00:06:36;;;;;;;0.30;0.20;;;;;;;2.09;76.72;100365.92;1689653;83;21131;-69
2022/04/18 00:09:06;;;;;;;0.40;0.20;;;;;;;2.11;76.54;100365.30;1691017;83;21034;-69
2022/04/18 00:11:34;;;;;;;0.30;0.30;;;;;;;2.14;76.31;100370.28;1680811;82;21675;-68
2022/04/18 00:14:04;;;;;;;0.40;0.27;;;;;;;2.13;75.96;100366.00;1717476;82;21590;-67
2022/04/18 00:16:32;;;;;;;0.37;0.30;;;;;;;2.11;76.04;100368.39;1722226;82;21014;-69
2022/04/18 00:19:01;;;;;;;0.87;0.40;;;;;;;2.10;76.42;100358.37;1711915;82;22130;-69
2022/04/18 00:21:27;;;;;;;0.40;0.40;;;;;;;2.11;76.27;100353.47;1716002;82;21191;-69
2022/04/18 00:23:54;;;;;;;0.30;0.30;;;;;;;2.08;76.18;100360.30;1710852;82;21111;-69
2022/04/18 00:26:21;;;;;;;0.40;0.40;;;;;;;2.02;76.08;100354.27;1721836;83;21101;-69
2022/04/18 00:28:49;;;;;;;0.43;0.40;;;;;;;1.97;75.92;100358.25;1719484;82;21073;-69
2022/04/18 00:31:18;;;;;;;0.50;0.50;;;;;;;1.93;75.96;100358.51;1723114;82;21084;-69
2022/04/18 00:33:45;;;;;;;0.70;0.70;;;;;;;1.94;75.86;100352.76;1717740;82;21134;-69
2022/04/18 00:36:12;;;;;;;0.50;0.50;;;;;;;1.94;75.61;100347.05;1699865;83;21228;-68
2022/04/18 00:38:44;;;;;;;1.60;0.60;;;;;;;1.92;75.59;100345.49;1690260;83;21384;-68
2022/04/18 00:41:08;;;;;;;0.50;0.50;;;;;;;1.91;75.74;100342.53;1694984;83;21109;-70
2022/04/18 00:43:41;;;;;;;0.62;0.35;;;;;;;1.89;75.75;100343.15;1682158;83;21072;-70
2022/04/18 00:46:09;;;;;;;0.50;0.40;;;;;;;1.89;75.89;100343.97;1678843;83;21042;-69
2022/04/18 00:48:36;;;;;;;0.50;0.50;;;;;;;1.94;76.10;100335.67;1677912;83;21082;-69
2022/04/18 00:51:07;;;;;;;0.63;0.63;;;;;;;1.99;76.59;100334.80;1684453;83;21034;-68
2022/04/18 00:53:37;;;;;;;1.63;0.70;;;;;;;2.05;76.95;100331.63;1676790;83;21042;-69
2022/04/18 00:56:06;;;;;;;0.90;0.90;;;;;;;2.09;77.36;100334.38;1681391;83;21173;-69
2022/04/18 00:58:33;;;;;;;0.83;0.47;;;;;;;2.10;78.17;100329.94;1622248;86;21098;-70
2022/04/18 01:01:00;;;;;;;0.80;0.50;;;;;;;2.06;77.83;100330.69;1610345;86;21154;-70
2022/04/18 01:03:30;;;;;;;0.57;0.50;;;;;;;2.02;77.17;100329.29;1623056;86;21117;-70
2022/04/18 01:06:01;;;;;;;0.23;0.23;;;;;;;2.05;76.76;100328.18;1661792;84;21647;-70
2022/04/18 01:08:31;;;;;;;0.80;0.80;;;;;;;2.06;76.04;100321.97;1647634;84;21050;-68
2022/04/18 01:10:59;;;;;;;1.37;0.90;;;;;;;2.02;77.32;100318.77;1651245;84;21091;-69
2022/04/18 01:13:28;;;;;;;1.50;1.40;;;;;;;1.99;77.96;100318.20;1667623;84;21034;-70
2022/04/18 01:15:57;;;;;;;1.50;1.40;;;;;;;2.01;78.66;100315.78;1650645;84;21083;-69
2022/04/18 01:18:31;;;;;;;1.53;1.07;;;;;;;2.05;79.19;100305.34;1646425;84;21105;-69
2022/04/18 01:20:59;;;;;;;1.07;1.07;;;;;;;2.13;79.46;100304.70;1643432;85;21102;-68
2022/04/18 01:23:47;;;;;;;2.13;0.70;;;;;;;2.21;79.53;100307.97;1664242;85;21148;-69
2022/04/18 01:29:02;;;;;;;0.67;0.67;;;;;;;2.35;79.59;100298.36;1655504;85;21117;-68
2022/04/18 01:31:34;;;;;;;1.00;0.90;;;;;;;2.41;79.57;100295.20;1658619;85;21526;-70
2022/04/18 01:34:04;;;;;;;1.00;0.93;;;;;;;2.45;79.46;100291.33;1670556;84;21041;-70
2022/04/18 01:36:32;;;;;;;1.47;1.37;;;;;;;2.46;79.25;100289.02;1679004;84;21040;-69
2022/04/18 01:39:00;;;;;;;1.90;0.97;;;;;;;2.45;78.93;100287.38;1660452;85;21622;-70
2022/04/18 01:41:27;;;;;;;1.20;1.20;;;;;;;2.40;78.93;100287.44;1654491;85;21653;-69
2022/04/18 01:43:54;;;;;;;;;;;;;;;2.38;78.94;100282.31;1694102;84;21045;-69
2022/04/18 01:46:22;;;;;;;2.47;2.05;;;;;;;2.42;78.87;100285.01;1696434;84;20449;-70
2022/04/18 01:48:51;;;;;;;1.92;1.67;;;;;;;2.41;78.89;100282.05;1685249;84;21562;-69
2022/04/18 01:51:17;;;;;;;2.10;1.73;;;;;;;2.36;78.68;100269.78;1681443;83;21089;-70
2022/04/18 01:53:45;;;;;;;2.97;1.27;;;;;;;2.38;78.74;100283.63;1688970;84;21066;-69
2022/04/18 01:56:13;;;;;;;3.47;2.67;;;;;;;2.37;78.72;100272.74;1684653;83;21065;-70
2022/04/18 01:58:39;;;;;;;;;;;;;;;2.33;78.59;100278.76;1693539;84;21519;-69
2022/04/18 02:01:06;;;;;;;4.20;2.70;;;;;;;2.28;78.38;100275.73;1701935;83;20132;-70
2022/04/18 02:03:34;;;;;;;3.30;2.53;;;;;;;2.18;78.44;100270.91;1692919;83;21023;-69
2022/04/18 02:06:00;;;;;;;;;;;;;;;2.17;78.56;100268.41;1702798;83;21748;-68
2022/04/18 02:08:28;;;;;;;4.00;2.47;;;;;;;2.19;78.37;100269.14;1698480;83;20144;-69
2022/04/18 02:10:54;;;;;;;2.20;2.00;;;;;;;2.21;78.15;100271.15;1693170;83;21744;-69
2022/04/18 02:13:22;;;;;;;6.33;2.20;;;;;;;2.22;76.09;100268.84;1658119;84;21540;-68
2022/04/18 02:15:48;;;;;;;2.85;1.90;;;;;;;2.18;75.50;100261.71;1657532;84;21083;-68
2022/04/18 02:18:15;;;;;;;1.50;1.40;;;;;;;2.13;75.81;100264.77;1670570;84;21089;-69
2022/04/18 02:20:41;;;;;;;2.98;1.35;;;;;;;2.12;75.81;100264.89;1617911;86;21433;-68
2022/04/18 02:23:08;;;;;;;1.00;1.00;;;;;;;2.11;76.37;100263.22;1674268;83;21565;-68
2022/04/18 02:25:34;;;;;;;1.00;0.60;;;;;;;2.10;76.73;100262.88;1697018;83;21512;-69
2022/04/18 02:28:04;;;;;;;1.33;0.90;;;;;;;2.08;76.85;100261.70;1693420;83;21037;-68
2022/04/18 02:30:32;;;;;;;1.07;1.00;;;;;;;2.07;77.22;100256.11;1683823;83;21065;-69
2022/04/18 02:33:01;;;;;;;0.80;0.60;;;;;;;2.06;77.63;100252.30;1679610;83;21068;-69
2022/04/18 02:35:28;;;;;;;;;;;;;;;2.05;78.18;100254.56;1682456;83;21080;-69
2022/04/18 02:37:56;;;;;;;0.68;0.68;;;;;;;1.99;78.50;100257.73;1675107;83;20184;-68
2022/04/18 02:40:27;;;;;;;0.70;0.70;;;;;;;1.89;79.12;100260.34;1668279;83;21609;-70
2022/04/18 02:42:54;;;;;;;0.67;0.63;;;;;;;1.86;79.55;100260.60;1688420;83;21553;-69
2022/04/18 02:45:21;;;;;;;;;;;;;;;1.85;79.80;100257.64;1682603;83;21134;-68
2022/04/18 02:47:52;;;;;;;0.70;0.70;;;;;;;1.81;80.36;100257.08;1646214;85;20149;-69
2022/04/18 02:50:19;;;;;;;0.57;0.57;;;;;;;1.78;80.61;100259.14;1659540;85;21498;-69
2022/04/18 02:52:45;;;;;;;0.60;0.60;;;;;;;1.75;80.75;100257.13;1684498;85;21406;-68
2022/04/18 02:55:13;;;;;;;0.70;0.70;;;;;;;1.74;81.31;100259.39;1603125;86;21093;-68
2022/04/18 02:57:40;;;;;;;;;;;;;;;1.74;81.51;100248.05;1627301;86;21987;-68
2022/04/18 03:00:10;;;;;;;1.33;1.23;;;;;;;1.75;81.56;100249.24;1586659;88;20929;-70
2022/04/18 03:02:39;;;;;;;1.10;1.10;;;;;;;1.70;81.76;100250.61;1599368;88;21543;-70
2022/04/18 03:05:10;;;;;;;2.07;0.70;;;;;;;1.67;82.08;100253.00;1613656;87;21584;-69
2022/04/18 03:07:38;;;;;;;0.80;0.80;;;;;;;1.62;82.20;100249.96;1611111;87;21038;-70
2022/04/18 03:10:07;;;;;;;1.20;1.10;;;;;;;1.55;82.42;100247.51;1606852;87;21198;-68
2022/04/18 03:12:34;;;;;;;1.27;1.17;;;;;;;1.49;82.84;100245.41;1642750;85;21095;-69
2022/04/18 03:15:01;;;;;;;1.07;1.07;;;;;;;1.46;83.01;100243.86;1651239;85;21142;-70
2022/04/18 03:17:29;;;;;;;1.60;1.50;;;;;;;1.52;83.23;100248.58;1633173;85;21141;-69
2022/04/18 03:19:56;;;;;;;1.13;0.97;;;;;;;1.60;83.33;100251.03;1647045;85;21043;-69
2022/04/18 03:22:24;;;;;;;2.00;0.90;;;;;;;1.32;83.35;100191.71;1615661;87;21091;-69
2022/04/18 03:24:54;;;;;;;0.97;0.93;;;;;;;1.75;83.06;100242.67;1612247;86;21062;-69
2022/04/18 03:27:21;;;;;;;2.10;1.23;;;;;;;1.79;82.87;100237.13;1629022;86;21787;-68
2022/04/18 03:29:49;;;;;;;1.37;0.80;;;;;;;1.78;82.55;100235.48;1630366;86;21134;-69
2022/04/18 03:32:17;;;;;;;1.53;1.33;;;;;;;1.77;82.61;100236.44;1619741;87;21198;-70
2022/04/18 03:34:45;;;;;;;1.60;1.50;;;;;;;1.73;82.91;100226.67;1618321;88;21047;-71
2022/04/18 03:39:59;;;;;;;5.27;3.43;;;;;;;1.72;83.10;100228.48;1622754;86;21675;-71
2022/04/18 03:42:32;;;;;;;9.23;3.43;;;;;;;1.75;83.12;100220.34;1609746;86;21652;-70
2022/04/18 03:45:05;;;;;;;6.47;3.93;;;;;;;1.79;82.92;100224.84;1631613;85;21094;-69
2022/04/18 03:47:33;;;;;;;8.10;4.77;;;;;;;1.79;83.02;100220.05;1633474;86;21573;-69
2022/04/18 03:50:02;;;;;;;10.80;4.77;;;;;;;1.79;82.97;100214.80;1627994;86;21117;-69
2022/04/18 03:52:29;;;;;;;12.40;6.20;;;;;;;1.81;83.25;100212.86;1610979;88;21150;-69
2022/04/18 03:54:58;;;;;;;8.30;6.03;;;;;;;1.82;83.21;100212.73;1632890;86;21121;-69
2022/04/18 03:57:26;;;;;;;17.43;7.30;;;;;;;1.87;83.20;100209.71;1630702;86;21051;-69
2022/04/18 03:59:54;;;;;;;17.03;9.20;;;;;;;1.90;83.06;100212.91;1620483;86;21190;-69
2022/04/18 04:02:23;;;;;;;17.90;9.33;;;;;;;1.91;82.87;100209.30;1629196;86;21067;-70
2022/04/18 04:04:51;;;;;;;23.77;10.37;;;;;;;1.90;82.75;100206.33;1633596;86;21177;-69
2022/04/18 04:07:18;;;;;;;19.40;11.08;;;;;;;1.87;82.66;100205.28;1628649;86;21109;-70
2022/04/18 04:09:46;;;;;;;22.30;10.70;;;;;;;1.86;82.65;100201.47;1660033;84;21064;-68
2022/04/18 04:12:14;;;;;;;;;;;;;;;1.87;82.67;100197.88;1642327;84;21047;-69
2022/04/18 04:14:45;;;;;;;20.67;10.13;;;;;;;1.92;82.64;100191.72;1678526;85;20135;-71
2022/04/18 04:17:14;;;;;;;21.00;9.53;;;;;;;1.91;82.26;100184.81;1665774;85;21613;-69
2022/04/18 04:19:41;;;;;;;19.10;9.57;;;;;;;1.91;82.32;100179.55;1645525;85;21052;-70
2022/04/18 04:22:11;;;;;;;17.23;8.40;;;;;;;1.93;82.19;100176.30;1674010;85;21171;-70
2022/04/18 04:24:40;;;;;;;19.87;8.93;;;;;;;1.95;82.13;100170.42;1629757;86;21614;-70
2022/04/18 04:27:07;;;;;;;18.83;8.93;;;;;;;1.97;81.90;100168.48;1660651;85;21528;-69
2022/04/18 04:29:33;;;;;;;19.07;8.78;;;;;;;1.90;81.57;100165.59;1661387;85;21146;-69
2022/04/18 04:32:03;;;;;;;20.60;9.57;;;;;;;1.79;81.94;100164.86;1659967;85;21113;-70
2022/04/18 04:34:32;;;;;;;17.33;8.87;;;;;;;1.69;82.13;100155.16;1655095;85;21041;-70
2022/04/18 04:37:12;;;;;;;18.77;8.63;;;;;;;1.68;82.54;100156.14;1560365;88;21179;-68
2022/04/18 04:39:39;;;;;;;15.53;7.20;;;;;;;1.78;82.74;100156.64;1660235;85;21053;-70
2022/04/18 04:42:07;;;;;;;13.83;8.57;;;;;;;1.83;82.47;100158.36;1659680;85;21058;-69
2022/04/18 04:44:34;;;;;;;19.53;8.67;;;;;;;1.87;82.55;100152.71;1602508;88;21598;-69
2022/04/18 04:47:04;;;;;;;16.43;8.50;;;;;;;1.92;82.48;100149.20;1660207;85;21094;-69
2022/04/18 04:49:31;;;;;;;16.67;9.37;;;;;;;1.99;82.55;100153.41;1651565;85;21065;-70
2022/04/18 04:52:14;;;;;;;18.03;8.77;;;;;;;2.05;82.45;100155.48;1670078;84;21124;-69
2022/04/18 04:54:41;;;;;;;;;;;;;;;2.09;82.60;100156.89;1671035;83;21186;-68
2022/04/18 04:57:10;;;;;;;18.77;9.23;;;;;;;2.10;82.38;100147.19;1632553;86;21049;-70
2022/04/18 04:59:56;;;;;;;15.23;8.93;;;;;;;2.05;82.37;100146.27;1643263;85;21651;-69
2022/04/18 05:02:24;;;;;;;21.25;9.53;;;;;;;2.12;82.17;100146.56;1609865;85;21538;-69
2022/04/18 05:04:53;;;;;;;19.00;8.27;;;;;;;2.21;81.81;100148.86;1654542;85;21079;-68
2022/04/18 05:07:20;;;;;;;13.00;7.30;;;;;;;2.23;80.90;100145.61;1685322;84;21095;-71
2022/04/18 05:09:50;;;;;;;13.43;6.30;;;;;;;2.22;80.81;100146.06;1682570;84;21024;-70
2022/04/18 05:12:17;;;;;;;;;;;;;;;2.21;80.93;100150.17;1691690;83;21039;-69
2022/04/18 05:14:46;;;;;;;13.33;7.03;;;;;;;2.16;81.20;100156.33;1675553;85;20115;-70
2022/04/18 05:17:18;;;;;;;18.07;6.33;;;;;;;2.02;81.73;100156.27;1616479;87;21214;-69
2022/04/18 05:19:47;;;;;;;13.63;6.30;;;;;;;1.98;82.12;100158.34;1621721;88;21102;-69
2022/04/18 05:22:19;;;;;;;12.07;6.60;;;;;;;1.96;82.74;100152.38;1625974;85;21183;-68
2022/04/18 05:24:45;;;;;;;15.10;6.25;;;;;;;1.92;82.93;100148.34;1681982;84;21032;-68
2022/04/18 05:27:15;;;;;;;4.67;3.57;;;;;;;1.87;82.96;100149.26;1648093;86;21094;-68
2022/04/18 05:29:43;;;;;;;5.00;3.07;;;;;;;1.85;83.26;100149.88;1678854;85;21737;-69
2022/04/18 05:32:12;;;;;;;6.00;2.63;;;;;;;1.77;83.43;100144.45;1681377;85;21011;-69
2022/04/18 05:34:40;;;;;;;2.30;2.10;;;;;;;1.71;84.10;100145.37;1690348;83;21085;-70
2022/04/18 05:37:11;;;;;;;3.50;1.67;;;;;;;1.74;84.89;100147.70;1694023;83;21867;-70
2022/04/18 05:39:42;;;;;;;1.47;1.00;;;;;;;1.79;85.09;100145.15;1689307;83;21098;-70
2022/04/18 05:42:08;;;;;;;3.37;1.30;;;;;;;1.84;84.73;100149.52;1700410;83;21089;-70
2022/04/18 05:44:35;;;;;;;3.13;1.00;;;;;;;1.89;84.65;100147.32;1662321;84;21080;-70
2022/04/18 05:47:01;;;;;;;1.05;0.90;;;;;;;1.91;84.79;100140.12;1684856;83;21129;-69
2022/04/18 05:49:30;;;;;;;1.67;1.27;;;;;;;1.98;84.79;100141.25;1671276;84;21601;-70
2022/04/18 05:51:57;;;;;;;0.83;0.60;;;;;;;2.07;84.61;100137.80;1679034;83;21614;-68
2022/04/18 05:55:47;;;;;;;0.57;0.57;;;;;;;2.33;84.53;100133.27;1781075;77;22822;-69
2022/04/18 05:58:19;;;;;;;1.23;1.00;;;;;;;2.44;84.08;100134.42;1713494;82;21050;-68
2022/04/18 06:00:45;;;;;;;1.02;1.02;;;;;;;2.58;83.36;100129.70;1717266;82;21021;-71
2022/04/18 06:03:12;;;;;;;1.40;1.10;;;;;;;2.65;82.38;100129.48;1716830;81;20995;-69
2022/04/18 06:05:39;;;;;;;6.00;3.00;;;;;;;2.61;81.40;100130.73;1720386;81;22010;-68
2022/04/18 06:08:08;;;;;;;5.60;2.93;;;;;;;2.56;81.53;100135.59;1688699;84;21057;-68
2022/04/18 06:10:45;;;;;;;12.10;4.83;;;;;;;2.56;81.92;100130.33;1678263;85;21065;-69
2022/04/18 06:13:18;;;;;;;10.27;4.47;;;;;;;2.59;81.64;100124.30;1657469;86;21668;-68
2022/04/18 06:15:47;;;;;;;7.87;5.00;;;;;;;2.62;81.60;100124.48;1668621;85;21521;-69
2022/04/18 06:18:15;;;;;;;6.50;5.13;;;;;;;2.65;81.32;100127.67;1688827;84;21178;-70
2022/04/18 06:20:42;;;;;;;11.23;5.87;;;;;;;2.69;81.74;100122.48;1660643;86;21069;-69
2022/04/18 06:23:09;;;;;;;8.88;5.67;;;;;;;2.76;81.67;100124.05;1687380;84;20996;-69
2022/04/18 06:25:36;;;;;;;8.83;5.43;;;;;;;2.83;81.71;100126.45;1693046;84;22384;-68
2022/04/18 06:28:04;;;;;;;8.03;6.42;;;;;;;2.86;81.13;100126.18;1674117;85;21038;-70
2022/04/18 06:30:32;;;;;;;5.93;5.10;;;;;;;2.85;81.00;100122.37;1671785;85;21050;-71
2022/04/18 06:33:11;;;;;;;9.60;5.50;;;;;;;2.88;80.88;100121.59;1595834;87;22481;-71
2022/04/18 06:35:38;;;;;;;8.90;4.77;;;;;;;2.95;80.92;100119.20;1704665;84;21024;-70
2022/04/18 06:38:05;;;;;;;7.20;5.27;;;;;;;3.00;80.42;100126.19;1702984;83;21053;-71
2022/04/18 06:40:37;;;;;;;7.63;5.10;;;;;;;3.06;80.55;100124.29;1702363;83;21410;-72
2022/04/18 06:43:04;;;;;;;8.07;5.50;;;;;;;3.03;80.21;100104.84;1700404;84;21065;-72
2022/04/18 06:45:32;;;;;;;5.67;4.60;;;;;;;3.18;79.43;100121.47;1688687;84;21522;-70
2022/04/18 06:47:59;;;;;;;9.03;4.13;;;;;;;3.19;79.56;100118.69;1674020;83;21649;-71
2022/04/18 06:50:37;;;;;;;4.87;4.12;;;;;;;3.20;79.42;100119.05;1675603;84;21048;-72
2022/04/18 06:53:22;;;;;;;4.07;3.00;;;;;;;3.24;79.31;100119.09;1667388;84;21087;-70
2022/04/18 06:58:47;;;;;;;1.50;1.40;;;;;;;3.76;78.85;100112.41;1652509;83;21101;-72
2022/04/18 07:01:13;;;;;;;0.80;0.80;;;;;;;4.00;74.97;100114.45;1711388;82;21370;-70
2022/04/18 07:03:40;;;;;;;1.27;1.15;;;;;;;4.03;73.48;100113.66;1681989;83;21145;-71
2022/04/18 07:06:06;;;;;;;;;;;;;;;3.95;73.01;100114.88;1708687;83;21049;-70
2022/04/18 07:08:35;;;;;;;1.23;1.23;;;;;;;3.85;73.12;100112.83;1706638;82;20451;-70
2022/04/18 07:11:03;;;;;;;2.53;2.33;;;;;;;3.70;74.11;100108.06;1705375;81;21048;-67
2022/04/18 07:13:29;;;;;;;1.30;1.30;;;;;;;3.67;74.30;100111.02;1718000;82;21554;-72
2022/04/18 07:15:57;;;;;;;1.67;1.33;;;;;;;3.77;74.68;100108.77;1709608;82;21054;-71
2022/04/18 07:18:25;;;;;;;1.33;1.23;;;;;;;3.84;74.50;100108.05;1712345;82;21203;-71
2022/04/18 07:20:53;;;;;;;1.70;1.30;;;;;;;3.90;73.93;100113.21;1714698;82;21525;-71
2022/04/18 07:23:20;;;;;;;1.90;1.80;;;;;;;3.87;74.04;100112.18;1692529;82;21048;-71
2022/04/18 07:25:51;;;;;;;1.67;1.57;;;;;;;3.82;74.01;100107.84;1678882;83;21094;-71
2022/04/18 07:28:21;;;;;;;1.53;1.50;;;;;;;3.78;74.25;100109.95;1662456;83;21618;-71
2022/04/18 07:30:49;;;;;;;2.83;1.93;;;;;;;3.75;74.42;100108.95;1668981;83;21153;-73
2022/04/18 07:33:16;;;;;;;6.12;4.05;;;;;;;3.77;74.14;100107.45;1675991;83;21026;-71
2022/04/18 07:35:43;;;;;;;5.47;3.37;;;;;;;3.78;73.99;100110.45;1699048;83;21074;-71
2022/04/18 07:40:56;;;;;;;4.50;4.00;;;;;;;3.76;74.63;100089.99;1690048;83;21130;-71
2022/04/18 07:43:24;;;;;;;8.40;5.33;;;;;;;3.71;75.04;100103.61;1696821;83;21548;-72
2022/04/18 07:45:50;;;;;;;7.35;5.50;;;;;;;3.66;75.41;100102.75;1634838;85;21000;-69
2022/04/18 07:48:17;;;;;;;12.78;7.00;;;;;;;3.65;76.03;100095.80;1635310;85;21171;-73
2022/04/18 07:53:32;;;;;;;9.10;6.33;;;;;;;3.67;75.99;100096.52;1664330;85;21105;-71
2022/04/18 07:55:58;;;;;;;8.67;5.17;;;;;;;3.73;76.12;100096.41;1657513;85;21047;-71
2022/04/18 07:58:25;;;;;;;7.30;5.77;;;;;;;3.75;75.92;100101.50;1645201;85;21083;-70
2022/04/18 08:00:58;;;;;;;7.33;4.77;;;;;;;3.74;75.83;100096.73;1654977;85;21130;-70
2022/04/18 08:03:25;;;;;;;6.57;5.10;;;;;;;3.75;75.81;100098.86;1633090;86;21660;-71
2022/04/18 08:05:57;;;;;;;6.57;4.53;;;;;;;3.76;75.61;100097.91;1644545;85;21051;-71
2022/04/18 08:08:27;;;;;;;6.17;4.60;;;;;;;3.83;74.91;100098.47;1638606;86;21058;-71
2022/04/18 08:10:54;;;;;;;6.53;4.30;;;;;;;3.92;74.66;100093.26;1641946;85;21111;-73
2022/04/18 08:13:20;;;;;;;4.97;4.55;;;;;;;3.95;74.77;100094.28;1639348;86;21032;-72
2022/04/18 08:16:08;;;;;;;5.10;4.60;;;;;;;3.92;74.64;100087.52;1644340;86;21654;-73
2022/04/18 08:18:38;;;;;;;5.67;4.83;;;;;;;3.90;74.17;100095.57;1637028;86;21103;-75
2022/04/18 08:21:07;;;;;;;5.30;4.80;;;;;;;3.85;74.20;100089.91;1638553;86;21155;-73
2022/04/18 08:23:36;;;;;;;4.97;4.43;;;;;;;3.86;74.26;100092.05;1665847;83;21092;-73
2022/04/18 08:26:21;;;;;;;5.67;4.73;;;;;;;3.90;73.53;100083.70;1686690;83;21109;-73
2022/04/18 08:28:52;;;;;;;3.93;3.60;;;;;;;4.04;72.97;100078.88;1696566;83;21152;-71
2022/04/18 08:31:20;;;;;;;6.70;4.60;;;;;;;4.04;72.38;100083.65;1693359;83;21053;-72
2022/04/18 08:34:07;;;;;;;6.83;5.57;;;;;;;4.03;72.29;100089.07;1695665;82;21048;-72
2022/04/18 08:36:33;;;;;;;6.80;4.53;;;;;;;4.01;72.90;100081.80;1686736;83;21482;-71
2022/04/18 08:39:00;;;;;;;;;;;;;;;4.00;72.95;100077.03;1696981;84;21933;-72
2022/04/18 08:41:34;;;;;;;8.17;5.07;;;;;;;4.06;73.07;100086.96;1680608;84;20135;-72
2022/04/18 08:44:03;;;;;;;7.80;5.50;;;;;;;4.17;72.62;100075.84;1688920;84;21082;-72
2022/04/18 08:46:33;;;;;;;7.27;4.87;;;;;;;4.24;71.91;100071.63;1674985;84;21155;-73
2022/04/18 08:54:36;;;;;;;3.53;3.00;;;;;;;4.32;72.59;100067.71;1677161;84;21174;-71
2022/04/18 08:57:04;;;;;;;2.53;2.17;;;;;;;4.39;71.64;100059.52;1679075;84;21131;-70
2022/04/18 08:59:31;;;;;;;3.13;1.37;;;;;;;4.37;70.64;100064.13;1689655;84;21293;-73
2022/04/18 09:01:59;;;;;;;3.07;1.60;;;;;;;4.38;70.87;100068.41;1666620;84;21075;-71
2022/04/18 09:04:36;;;;;;;1.93;1.80;;;;;;;4.45;70.41;100067.30;1619798;86;21599;-71
2022/04/18 09:07:13;;;;;;;1.95;1.55;;;;;;;4.47;69.77;100068.80;1654758;84;21031;-69
2022/04/18 09:09:43;;;;;;;2.30;2.07;;;;;;;4.38;69.95;100059.67;1676156;84;21077;-71
2022/04/18 09:12:22;;;;;;;2.10;2.00;;;;;;;4.33;70.44;100061.44;1683978;84;21071;-72
2022/04/18 09:14:52;;;;;;;2.30;2.13;;;;;;;4.33;70.65;100058.80;1681186;84;21098;-72
2022/04/18 09:17:35;;;;;;;1.67;1.57;;;;;;;4.31;69.96;100054.17;1682401;84;21158;-72
2022/04/18 09:20:13;;;;;;;2.73;1.23;;;;;;;4.32;70.37;100054.52;1667277;83;21050;-71
2022/04/18 09:22:44;;;;;;;3.50;1.90;;;;;;;4.37;70.17;100060.17;1675475;84;21060;-73
2022/04/18 09:25:20;;;;;;;1.90;1.80;;;;;;;4.32;70.15;100058.98;1655791;85;21060;-73
2022/04/18 09:27:58;;;;;;;2.70;2.47;;;;;;;4.31;70.16;100055.98;1661540;85;22230;-71
2022/04/18 09:30:32;;;;;;;2.97;2.70;;;;;;;4.35;70.78;100051.58;1660533;84;22254;-72
2022/04/18 09:33:08;;;;;;;3.10;2.80;;;;;;;4.28;70.21;100043.44;1671531;84;21557;-72
2022/04/18 09:35:38;;;;;;;3.53;3.23;;;;;;;4.20;71.54;100054.42;1677369;84;21126;-73
2022/04/18 09:38:08;;;;;;;3.23;3.03;;;;;;;4.20;71.83;100052.63;1676492;84;21120;-69
2022/04/18 09:40:38;;;;;;;2.33;2.17;;;;;;;4.27;71.67;100047.55;1589907;86;21207;-70
2022/04/18 09:43:06;;;;;;;2.80;2.60;;;;;;;4.37;72.04;100044.34;1665261;85;21605;-71
2022/04/18 09:45:32;;;;;;;2.85;2.15;;;;;;;4.49;71.99;100047.03;1674876;84;21101;-73
2022/04/18 09:48:04;;;;;;;3.77;2.17;;;;;;;4.15;71.37;99981.03;1665199;85;21043;-72
2022/04/18 09:53:26;;;;;;;2.47;2.27;;;;;;;4.51;72.27;100046.06;1675163;84;21122;-73
2022/04/18 09:55:58;;;;;;;2.63;1.70;;;;;;;4.57;71.18;100048.89;1626853;85;21034;-73
2022/04/18 09:58:27;;;;;;;4.93;1.57;;;;;;;4.70;70.25;100041.87;1653394;85;21058;-73
2022/04/18 10:00:53;;;;;;;1.60;1.35;;;;;;;4.78;70.16;100036.61;1666549;82;21095;-74
2022/04/18 10:03:20;;;;;;;3.03;1.47;;;;;;;4.79;70.24;100034.83;1712385;82;21032;-69
2022/04/18 10:05:50;;;;;;;2.67;2.37;;;;;;;4.80;70.09;100034.67;1711261;82;21050;-68
2022/04/18 10:08:16;;;;;;;1.57;1.47;;;;;;;4.77;69.99;100039.44;1672975;84;21003;-71
2022/04/18 10:10:43;;;;;;;2.00;1.65;;;;;;;4.72;71.24;100031.97;1707286;82;21166;-71
2022/04/18 10:13:11;;;;;;;4.40;2.00;;;;;;;4.72;70.46;100030.66;1703142;82;21166;-72
2022/04/18 10:15:41;;;;;;;1.25;0.90;;;;;;;4.74;71.05;100036.60;1708416;82;21147;-72
2022/04/18 10:18:12;;;;;;;1.43;1.13;;;;;;;4.71;70.93;100035.62;1715732;82;21078;-73
2022/04/18 10:20:53;;;;;;;1.00;1.00;;;;;;;4.59;70.77;100036.36;1669940;84;21007;-72
2022/04/18 10:24:09;;;;;;;2.77;0.93;;;;;;;4.52;70.43;100043.74;1661073;84;21621;-74
2022/04/18 10:27:17;;;;;;;0.77;0.67;;;;;;;4.44;71.09;100038.75;1689638;83;21115;-73
2022/04/18 10:29:50;;;;;;;1.62;1.45;;;;;;;4.48;70.87;100037.95;1690425;83;21458;-71
2022/04/18 10:32:22;;;;;;;0.87;0.87;;;;;;;4.54;70.62;100031.21;1654078;85;21090;-70
2022/04/18 10:34:52;;;;;;;0.70;0.70;;;;;;;4.62;71.01;100028.64;1691850;83;22288;-72
2022/04/18 10:37:24;;;;;;;3.60;2.70;;;;;;;4.67;70.42;100028.97;1655784;85;21066;-70
2022/04/18 10:40:02;;;;;;;2.03;0.97;;;;;;;4.67;70.35;100028.50;1691086;83;21423;-69
2022/04/18 10:42:35;;;;;;;0.87;0.87;;;;;;;4.66;70.06;100031.30;1690264;83;21601;-71
2022/04/18 10:45:24;;;;;;;0.80;0.80;;;;;;;4.67;69.62;100030.29;1695480;83;21027;-71
2022/04/18 10:48:13;;;;;;;0.60;0.50;;;;;;;4.75;69.40;100032.98;1689778;83;21082;-71
2022/04/18 10:50:50;;;;;;;0.77;0.77;;;;;;;4.84;69.56;100025.44;1689121;83;21569;-71
2022/04/18 10:53:36;;;;;;;2.43;1.57;;;;;;;4.95;67.91;100022.17;1692776;83;21506;-72
2022/04/18 10:56:09;;;;;;;0.70;0.70;;;;;;;5.03;67.21;100021.72;1685528;83;22068;-71
2022/04/18 10:58:36;;;;;;;0.70;0.70;;;;;;;5.12;66.50;100027.02;1694834;82;21027;-72
2022/04/18 11:01:07;;;;;;;0.65;0.65;;;;;;;5.13;65.49;100016.29;1707980;83;21443;-72
2022/04/18 11:03:46;;;;;;;3.07;0.50;;;;;;;5.13;65.46;100020.25;1641969;85;22174;-72
2022/04/18 11:06:21;;;;;;;1.30;1.20;;;;;;;5.19;65.35;100019.60;1695143;83;21176;-71
2022/04/18 11:09:02;;;;;;;0.70;0.70;;;;;;;5.28;65.32;100019.14;1689742;83;21044;-69
2022/04/18 11:12:05;;;;;;;1.53;1.43;;;;;;;5.38;65.07;100020.31;1692036;83;21022;-70
2022/04/18 11:14:55;;;;;;;1.20;1.03;;;;;;;5.48;64.69;100013.05;1691791;83;21087;-70
2022/04/18 11:17:38;;;;;;;1.33;1.23;;;;;;;5.49;63.90;100015.22;1686494;83;21079;-71
2022/04/18 11:20:35;;;;;;;3.13;1.40;;;;;;;5.52;63.97;100005.61;1683503;83;21598;-72
2022/04/18 11:23:23;;;;;;;0.50;0.37;;;;;;;5.59;63.69;100011.91;1709856;83;21633;-72
2022/04/18 11:25:58;;;;;;;0.70;0.43;;;;;;;5.67;62.98;100014.58;1691698;83;21542;-71
2022/04/18 11:28:38;;;;;;;1.27;0.63;;;;;;;5.68;62.10;100010.11;1714563;82;21110;-71
2022/04/18 11:31:21;;;;;;;0.83;0.83;;;;;;;5.66;61.81;100012.41;1680734;83;21118;-73
2022/04/18 11:33:48;;;;;;;0.90;0.90;;;;;;;5.58;61.14;99996.55;1714291;82;21986;-72
2022/04/18 11:36:15;;;;;;;0.55;0.55;;;;;;;5.64;60.99;100006.97;1686505;83;21087;-72
2022/04/18 11:38:42;;;;;;;0.40;0.40;;;;;;;5.67;60.54;100005.33;1693433;83;21094;-71
2022/04/18 11:41:11;;;;;;;0.57;0.40;;;;;;;5.72;60.62;100006.14;1709199;83;21130;-71
2022/04/18 11:43:39;;;;;;;0.70;0.50;;;;;;;5.70;58.31;100008.94;1695774;83;21103;-70
2022/04/18 11:46:09;;;;;;;0.80;0.30;;;;;;;5.66;58.55;100011.09;1712078;82;21003;-72
2022/04/18 11:48:36;;;;;;;0.80;0.30;;;;;;;5.67;58.17;100009.30;1690418;82;21036;-70
2022/04/18 11:51:03;;;;;;;0.43;0.30;;;;;;;5.68;58.98;100004.82;1721353;82;21043;-73
2022/04/18 11:53:32;;;;;;;0.50;0.50;;;;;;;5.62;58.74;99995.73;1705209;82;21066;-72
2022/04/18 11:56:06;;;;;;;0.97;0.50;;;;;;;5.60;59.13;99997.21;1696749;82;21038;-74
2022/04/18 11:58:36;;;;;;;0.40;0.40;;;;;;;5.62;58.49;99991.26;1694666;83;21038;-72
2022/04/18 12:06:49;;;;;;;0.40;0.30;;;;;;;5.42;59.04;100007.09;1710956;82;21071;-72
2022/04/18 12:09:23;;;;;;;0.50;0.50;;;;;;;5.39;59.16;100000.33;1709709;82;21067;-71
2022/04/18 12:11:51;;;;;;;0.97;0.60;;;;;;;5.43;58.99;99996.88;1691175;82;21010;-70
2022/04/18 12:14:20;;;;;;;1.33;0.73;;;;;;;5.37;58.45;99997.02;1681702;82;21085;-70
2022/04/18 12:16:46;;;;;;;0.70;0.70;;;;;;;5.34;58.67;99993.87;1702934;82;21013;-71
2022/04/18 12:19:15;;;;;;;0.40;0.40;;;;;;;5.37;59.21;99990.89;1685899;82;21149;-71